sensor_id;sensor_type;location;lat;lon;timestamp;temperature;humidity
34147;DHT22;20423;49.448;9.056;2022-07-10T00:02:04;13.30;99.90
34147;DHT22;20423;49.448;9.056;2022-07-10T00:04:31;13.20;99.90
34147;DHT22;20423;49.448;9.056;2022-07-10T00:06:58;13.40;99.90
34147;DHT22;20423;49.448;9.056;2022-07-10T00:09:24;13.40;99.90
34147;DHT22;20423;49.448;9.056;2022-07-10T00:12:28;13.50;99.90
34147;DHT22;20423;49.448;9.056;2022-07-10T00:14:54;13.50;99.90
34147;DHT22;20423;49.448;9.056;2022-07-10T00:17:19;13.50;99.90
34147;DHT22;20423;49.448;9.056;2022-07-10T00:19:45;13.40;99.90
34147;DHT22;20423;49.448;9.056;2022-07-10T00:22:11;13.40;99.90
34147;DHT22;20423;49.448;9.056;2022-07-10T00:24:37;13.40;99.90
34147;DHT22;20423;49.448;9.056;2022-07-10T00:27:03;13.50;99.90
34147;DHT22;20423;49.448;9.056;2022-07-10T00:29:29;13.50;99.90
34147;DHT22;20423;49.448;9.056;2022-07-10T00:31:55;13.40;99.90
34147;DHT22;20423;49.448;9.056;2022-07-10T00:34:21;13.40;99.90
34147;DHT22;20423;49.448;9.056;2022-07-10T00:40:35;13.30;99.90
34147;DHT22;20423;49.448;9.056;2022-07-10T00:43:00;13.20;99.90
34147;DHT22;20423;49.448;9.056;2022-07-10T00:45:26;13.10;99.90
34147;DHT22;20423;49.448;9.056;2022-07-10T00:47:52;13.10;99.90
34147;DHT22;20423;49.448;9.056;2022-07-10T00:50:18;13.00;99.90
34147;DHT22;20423;49.448;9.056;2022-07-10T00:52:46;13.10;99.90
34147;DHT22;20423;49.448;9.056;2022-07-10T00:55:13;13.00;99.90
34147;DHT22;20423;49.448;9.056;2022-07-10T00:57:40;12.90;99.90
34147;DHT22;20423;49.448;9.056;2022-07-10T01:00:06;12.90;99.90
34147;DHT22;20423;49.448;9.056;2022-07-10T01:03:10;12.80;99.90
34147;DHT22;20423;49.448;9.056;2022-07-10T01:05:37;12.80;99.90
34147;DHT22;20423;49.448;9.056;2022-07-10T01:08:02;12.60;99.90
34147;DHT22;20423;49.448;9.056;2022-07-10T01:10:28;12.60;99.90
34147;DHT22;20423;49.448;9.056;2022-07-10T01:12:54;12.60;99.90
34147;DHT22;20423;49.448;9.056;2022-07-10T01:15:20;12.60;99.90
34147;DHT22;20423;49.448;9.056;2022-07-10T01:17:47;12.60;99.90
34147;DHT22;20423;49.448;9.056;2022-07-10T01:20:14;12.60;99.90
34147;DHT22;20423;49.448;9.056;2022-07-10T01:22:40;12.50;99.90
34147;DHT22;20423;49.448;9.056;2022-07-10T01:25:06;12.50;99.90
34147;DHT22;20423;49.448;9.056;2022-07-10T01:27:32;12.50;99.90
34147;DHT22;20423;49.448;9.056;2022-07-10T01:29:59;12.40;99.90
34147;DHT22;20423;49.448;9.056;2022-07-10T01:32:25;12.40;99.90
34147;DHT22;20423;49.448;9.056;2022-07-10T01:34:57;12.30;99.90
34147;DHT22;20423;49.448;9.056;2022-07-10T01:37:22;12.30;99.90
34147;DHT22;20423;49.448;9.056;2022-07-10T01:39:48;12.30;99.90
34147;DHT22;20423;49.448;9.056;2022-07-10T01:42:14;12.30;99.90
34147;DHT22;20423;49.448;9.056;2022-07-10T01:44:40;12.30;99.90
34147;DHT22;20423;49.448;9.056;2022-07-10T01:47:05;12.20;99.90
34147;DHT22;20423;49.448;9.056;2022-07-10T01:49:31;12.20;99.90
34147;DHT22;20423;49.448;9.056;2022-07-10T01:51:59;12.10;99.90
34147;DHT22;20423;49.448;9.056;2022-07-10T01:54:24;12.00;99.90
34147;DHT22;20423;49.448;9.056;2022-07-10T01:56:50;12.00;99.90
34147;DHT22;20423;49.448;9.056;2022-07-10T01:59:19;11.90;99.90
34147;DHT22;20423;49.448;9.056;2022-07-10T02:01:45;11.90;99.90
34147;DHT22;20423;49.448;9.056;2022-07-10T02:04:11;11.80;99.90
34147;DHT22;20423;49.448;9.056;2022-07-10T02:10:42;11.80;99.90
34147;DHT22;20423;49.448;9.056;2022-07-10T02:13:09;11.60;99.90
34147;DHT22;20423;49.448;9.056;2022-07-10T02:15:35;11.60;99.90
34147;DHT22;20423;49.448;9.056;2022-07-10T02:18:01;11.60;99.90
34147;DHT22;20423;49.448;9.056;2022-07-10T02:20:26;11.60;99.90
34147;DHT22;20423;49.448;9.056;2022-07-10T02:22:52;11.60;99.90
34147;DHT22;20423;49.448;9.056;2022-07-10T02:25:18;11.50;99.90
34147;DHT22;20423;49.448;9.056;2022-07-10T02:27:43;11.40;99.90
34147;DHT22;20423;49.448;9.056;2022-07-10T02:30:18;11.40;99.90
34147;DHT22;20423;49.448;9.056;2022-07-10T02:32:44;11.40;99.90
34147;DHT22;20423;49.448;9.056;2022-07-10T02:38:16;11.30;99.90
34147;DHT22;20423;49.448;9.056;2022-07-10T02:40:42;11.30;99.90
34147;DHT22;20423;49.448;9.056;2022-07-10T02:43:08;11.40;99.90
34147;DHT22;20423;49.448;9.056;2022-07-10T02:45:34;11.40;99.90
34147;DHT22;20423;49.448;9.056;2022-07-10T02:48:00;11.50;99.90
34147;DHT22;20423;49.448;9.056;2022-07-10T02:50:26;11.50;99.90
34147;DHT22;20423;49.448;9.056;2022-07-10T02:52:51;11.50;99.90
34147;DHT22;20423;49.448;9.056;2022-07-10T02:55:17;11.40;99.90
34147;DHT22;20423;49.448;9.056;2022-07-10T02:57:43;11.30;99.90
34147;DHT22;20423;49.448;9.056;2022-07-10T03:00:09;11.20;99.90
34147;DHT22;20423;49.448;9.056;2022-07-10T03:02:35;11.20;99.90
34147;DHT22;20423;49.448;9.056;2022-07-10T03:05:00;11.10;99.90
34147;DHT22;20423;49.448;9.056;2022-07-10T03:07:26;11.10;99.90
34147;DHT22;20423;49.448;9.056;2022-07-10T03:09:52;11.10;99.90
34147;DHT22;20423;49.448;9.056;2022-07-10T03:12:19;11.10;99.90
34147;DHT22;20423;49.448;9.056;2022-07-10T03:14:44;11.10;99.90
34147;DHT22;20423;49.448;9.056;2022-07-10T03:17:10;11.20;99.90
34147;DHT22;20423;49.448;9.056;2022-07-10T03:19:36;11.20;99.90
34147;DHT22;20423;49.448;9.056;2022-07-10T03:22:01;11.20;99.90
34147;DHT22;20423;49.448;9.056;2022-07-10T03:24:27;11.30;99.90
34147;DHT22;20423;49.448;9.056;2022-07-10T03:26:53;11.30;99.90
34147;DHT22;20423;49.448;9.056;2022-07-10T03:29:19;11.40;99.90
34147;DHT22;20423;49.448;9.056;2022-07-10T03:31:44;11.50;99.90
34147;DHT22;20423;49.448;9.056;2022-07-10T03:34:10;11.60;99.90
34147;DHT22;20423;49.448;9.056;2022-07-10T03:36:36;11.60;99.90
34147;DHT22;20423;49.448;9.056;2022-07-10T03:39:01;11.60;99.90
34147;DHT22;20423;49.448;9.056;2022-07-10T03:41:27;11.70;99.90
34147;DHT22;20423;49.448;9.056;2022-07-10T03:43:53;11.60;99.90
34147;DHT22;20423;49.448;9.056;2022-07-10T03:46:18;11.60;99.90
34147;DHT22;20423;49.448;9.056;2022-07-10T03:48:44;11.50;99.90
34147;DHT22;20423;49.448;9.056;2022-07-10T03:51:10;11.50;99.90
34147;DHT22;20423;49.448;9.056;2022-07-10T03:53:36;11.40;99.90
34147;DHT22;20423;49.448;9.056;2022-07-10T03:56:03;11.40;99.90
34147;DHT22;20423;49.448;9.056;2022-07-10T03:58:29;11.30;99.90
34147;DHT22;20423;49.448;9.056;2022-07-10T04:00:54;11.20;99.90
34147;DHT22;20423;49.448;9.056;2022-07-10T04:03:20;11.10;99.90
34147;DHT22;20423;49.448;9.056;2022-07-10T04:05:46;11.10;99.90
34147;DHT22;20423;49.448;9.056;2022-07-10T04:08:11;11.10;99.90
34147;DHT22;20423;49.448;9.056;2022-07-10T04:10:37;11.10;99.90
34147;DHT22;20423;49.448;9.056;2022-07-10T04:13:04;11.10;99.90
34147;DHT22;20423;49.448;9.056;2022-07-10T04:15:29;11.10;99.90
34147;DHT22;20423;49.448;9.056;2022-07-10T04:17:55;11.00;99.90
34147;DHT22;20423;49.448;9.056;2022-07-10T04:20:21;11.00;99.90
34147;DHT22;20423;49.448;9.056;2022-07-10T04:22:47;11.00;99.90
34147;DHT22;20423;49.448;9.056;2022-07-10T04:25:13;11.00;99.90
34147;DHT22;20423;49.448;9.056;2022-07-10T04:27:39;11.10;99.90
34147;DHT22;20423;49.448;9.056;2022-07-10T04:30:06;11.10;99.90
34147;DHT22;20423;49.448;9.056;2022-07-10T04:32:32;11.20;99.90
34147;DHT22;20423;49.448;9.056;2022-07-10T04:34:58;11.30;99.90
34147;DHT22;20423;49.448;9.056;2022-07-10T04:37:24;11.30;99.90
34147;DHT22;20423;49.448;9.056;2022-07-10T04:39:49;11.30;99.90
34147;DHT22;20423;49.448;9.056;2022-07-10T04:42:15;11.30;99.90
34147;DHT22;20423;49.448;9.056;2022-07-10T04:44:41;11.40;99.90
34147;DHT22;20423;49.448;9.056;2022-07-10T04:47:07;11.50;99.90
34147;DHT22;20423;49.448;9.056;2022-07-10T04:49:33;11.50;99.90
34147;DHT22;20423;49.448;9.056;2022-07-10T04:51:59;11.60;99.90
34147;DHT22;20423;49.448;9.056;2022-07-10T04:54:25;11.70;99.90
34147;DHT22;20423;49.448;9.056;2022-07-10T04:56:51;11.90;99.90
34147;DHT22;20423;49.448;9.056;2022-07-10T04:59:17;12.00;99.90
34147;DHT22;20423;49.448;9.056;2022-07-10T05:01:43;12.00;99.90
34147;DHT22;20423;49.448;9.056;2022-07-10T05:04:09;12.20;99.90
34147;DHT22;20423;49.448;9.056;2022-07-10T05:06:35;12.20;99.90
34147;DHT22;20423;49.448;9.056;2022-07-10T05:09:02;12.20;99.90
34147;DHT22;20423;49.448;9.056;2022-07-10T05:11:28;12.00;99.90
34147;DHT22;20423;49.448;9.056;2022-07-10T05:14:25;12.00;99.90
34147;DHT22;20423;49.448;9.056;2022-07-10T05:16:51;11.90;99.90
34147;DHT22;20423;49.448;9.056;2022-07-10T05:19:16;11.90;99.90
34147;DHT22;20423;49.448;9.056;2022-07-10T05:21:42;11.90;99.90
34147;DHT22;20423;49.448;9.056;2022-07-10T05:24:08;12.00;99.90
34147;DHT22;20423;49.448;9.056;2022-07-10T05:26:33;12.10;99.90
34147;DHT22;20423;49.448;9.056;2022-07-10T05:29:01;12.10;99.90
34147;DHT22;20423;49.448;9.056;2022-07-10T05:31:27;12.30;99.90
34147;DHT22;20423;49.448;9.056;2022-07-10T05:33:52;12.60;99.90
34147;DHT22;20423;49.448;9.056;2022-07-10T05:36:18;12.70;99.90
34147;DHT22;20423;49.448;9.056;2022-07-10T05:38:44;12.70;99.90
34147;DHT22;20423;49.448;9.056;2022-07-10T05:41:09;12.80;99.90
34147;DHT22;20423;49.448;9.056;2022-07-10T05:43:35;13.00;99.90
34147;DHT22;20423;49.448;9.056;2022-07-10T05:46:01;13.10;99.90
34147;DHT22;20423;49.448;9.056;2022-07-10T05:48:27;13.30;99.90
34147;DHT22;20423;49.448;9.056;2022-07-10T05:50:52;13.40;99.90
34147;DHT22;20423;49.448;9.056;2022-07-10T05:53:18;13.40;99.90
34147;DHT22;20423;49.448;9.056;2022-07-10T05:55:46;13.30;99.90
34147;DHT22;20423;49.448;9.056;2022-07-10T05:58:13;13.30;99.90
34147;DHT22;20423;49.448;9.056;2022-07-10T06:00:39;13.40;99.90
34147;DHT22;20423;49.448;9.056;2022-07-10T06:03:05;13.30;99.90
34147;DHT22;20423;49.448;9.056;2022-07-10T06:05:31;13.30;99.90
34147;DHT22;20423;49.448;9.056;2022-07-10T06:07:57;13.40;99.90
34147;DHT22;20423;49.448;9.056;2022-07-10T06:10:22;13.50;99.90
34147;DHT22;20423;49.448;9.056;2022-07-10T06:12:48;13.60;99.90
34147;DHT22;20423;49.448;9.056;2022-07-10T06:15:14;13.80;99.90
34147;DHT22;20423;49.448;9.056;2022-07-10T06:17:39;13.80;99.90
34147;DHT22;20423;49.448;9.056;2022-07-10T06:20:05;13.90;99.90
34147;DHT22;20423;49.448;9.056;2022-07-10T06:22:31;13.90;99.90
34147;DHT22;20423;49.448;9.056;2022-07-10T06:24:58;13.50;99.90
34147;DHT22;20423;49.448;9.056;2022-07-10T06:27:25;13.20;99.90
34147;DHT22;20423;49.448;9.056;2022-07-10T06:29:50;13.00;99.90
34147;DHT22;20423;49.448;9.056;2022-07-10T06:32:16;12.70;99.90
34147;DHT22;20423;49.448;9.056;2022-07-10T06:34:42;12.60;99.90
34147;DHT22;20423;49.448;9.056;2022-07-10T06:37:08;12.70;99.90
34147;DHT22;20423;49.448;9.056;2022-07-10T06:39:33;12.80;99.90
34147;DHT22;20423;49.448;9.056;2022-07-10T06:42:06;13.10;99.90
34147;DHT22;20423;49.448;9.056;2022-07-10T06:44:39;13.20;99.90
34147;DHT22;20423;49.448;9.056;2022-07-10T06:47:07;13.30;99.90
34147;DHT22;20423;49.448;9.056;2022-07-10T06:49:52;13.40;99.90
34147;DHT22;20423;49.448;9.056;2022-07-10T06:52:17;13.40;99.90
34147;DHT22;20423;49.448;9.056;2022-07-10T06:54:43;13.30;99.90
34147;DHT22;20423;49.448;9.056;2022-07-10T06:57:09;13.30;99.90
34147;DHT22;20423;49.448;9.056;2022-07-10T06:59:35;13.20;99.90
34147;DHT22;20423;49.448;9.056;2022-07-10T07:02:01;13.20;99.90
34147;DHT22;20423;49.448;9.056;2022-07-10T07:04:27;13.30;99.90
34147;DHT22;20423;49.448;9.056;2022-07-10T07:06:53;13.40;99.90
34147;DHT22;20423;49.448;9.056;2022-07-10T07:09:18;13.50;99.90
34147;DHT22;20423;49.448;9.056;2022-07-10T07:11:44;13.70;99.90
34147;DHT22;20423;49.448;9.056;2022-07-10T07:14:11;14.00;99.90
34147;DHT22;20423;49.448;9.056;2022-07-10T07:16:37;14.40;99.90
34147;DHT22;20423;49.448;9.056;2022-07-10T07:19:16;15.00;99.90
34147;DHT22;20423;49.448;9.056;2022-07-10T07:21:44;15.50;99.90
34147;DHT22;20423;49.448;9.056;2022-07-10T07:24:28;15.90;99.90
34147;DHT22;20423;49.448;9.056;2022-07-10T07:26:54;15.80;99.90
34147;DHT22;20423;49.448;9.056;2022-07-10T07:29:20;15.80;99.90
34147;DHT22;20423;49.448;9.056;2022-07-10T07:31:45;15.90;99.90
34147;DHT22;20423;49.448;9.056;2022-07-10T07:34:11;15.90;99.90
34147;DHT22;20423;49.448;9.056;2022-07-10T07:36:37;15.80;99.90
34147;DHT22;20423;49.448;9.056;2022-07-10T07:39:04;15.70;99.90
34147;DHT22;20423;49.448;9.056;2022-07-10T07:41:30;15.80;99.90
34147;DHT22;20423;49.448;9.056;2022-07-10T07:43:56;15.80;99.90
34147;DHT22;20423;49.448;9.056;2022-07-10T07:46:21;15.60;99.90
34147;DHT22;20423;49.448;9.056;2022-07-10T07:49:12;15.30;99.90
34147;DHT22;20423;49.448;9.056;2022-07-10T07:51:38;14.90;99.90
34147;DHT22;20423;49.448;9.056;2022-07-10T07:54:03;14.40;99.90
34147;DHT22;20423;49.448;9.056;2022-07-10T07:56:38;14.10;99.90
34147;DHT22;20423;49.448;9.056;2022-07-10T07:59:04;14.20;99.90
34147;DHT22;20423;49.448;9.056;2022-07-10T08:01:30;14.30;99.90
34147;DHT22;20423;49.448;9.056;2022-07-10T08:03:55;14.50;99.90
34147;DHT22;20423;49.448;9.056;2022-07-10T08:06:21;14.30;99.90
34147;DHT22;20423;49.448;9.056;2022-07-10T08:08:47;14.20;99.90
34147;DHT22;20423;49.448;9.056;2022-07-10T08:11:13;14.20;99.90
34147;DHT22;20423;49.448;9.056;2022-07-10T08:13:38;14.20;99.90
34147;DHT22;20423;49.448;9.056;2022-07-10T08:16:04;14.00;99.90
34147;DHT22;20423;49.448;9.056;2022-07-10T08:18:30;13.90;99.90
34147;DHT22;20423;49.448;9.056;2022-07-10T08:20:56;14.10;99.90
34147;DHT22;20423;49.448;9.056;2022-07-10T08:23:21;14.20;99.90
34147;DHT22;20423;49.448;9.056;2022-07-10T08:25:47;14.40;99.90
34147;DHT22;20423;49.448;9.056;2022-07-10T08:28:13;14.60;99.90
34147;DHT22;20423;49.448;9.056;2022-07-10T08:30:38;15.00;99.90
34147;DHT22;20423;49.448;9.056;2022-07-10T08:33:04;15.50;99.90
34147;DHT22;20423;49.448;9.056;2022-07-10T08:35:30;16.10;99.90
34147;DHT22;20423;49.448;9.056;2022-07-10T08:37:56;16.60;99.90
34147;DHT22;20423;49.448;9.056;2022-07-10T08:40:22;16.70;99.90
34147;DHT22;20423;49.448;9.056;2022-07-10T08:42:48;16.70;99.90
34147;DHT22;20423;49.448;9.056;2022-07-10T08:45:14;16.60;99.90
34147;DHT22;20423;49.448;9.056;2022-07-10T08:47:41;16.10;99.90
34147;DHT22;20423;49.448;9.056;2022-07-10T08:50:24;16.30;99.90
34147;DHT22;20423;49.448;9.056;2022-07-10T08:53:07;16.30;99.90
34147;DHT22;20423;49.448;9.056;2022-07-10T08:55:35;16.40;99.90
34147;DHT22;20423;49.448;9.056;2022-07-10T08:58:02;16.40;99.90
34147;DHT22;20423;49.448;9.056;2022-07-10T09:00:30;16.10;99.90
34147;DHT22;20423;49.448;9.056;2022-07-10T09:02:56;16.00;99.90
34147;DHT22;20423;49.448;9.056;2022-07-10T09:05:40;15.80;99.90
34147;DHT22;20423;49.448;9.056;2022-07-10T09:08:26;16.00;99.90
34147;DHT22;20423;49.448;9.056;2022-07-10T09:11:17;17.80;99.90
34147;DHT22;20423;49.448;9.056;2022-07-10T09:13:53;18.20;99.90
34147;DHT22;20423;49.448;9.056;2022-07-10T09:16:24;17.60;99.90
34147;DHT22;20423;49.448;9.056;2022-07-10T09:18:50;17.20;99.90
34147;DHT22;20423;49.448;9.056;2022-07-10T09:21:23;16.60;99.90
34147;DHT22;20423;49.448;9.056;2022-07-10T09:23:49;16.20;99.90
34147;DHT22;20423;49.448;9.056;2022-07-10T09:26:15;16.10;99.90
34147;DHT22;20423;49.448;9.056;2022-07-10T09:28:42;16.20;99.90
34147;DHT22;20423;49.448;9.056;2022-07-10T09:31:07;16.30;99.90
34147;DHT22;20423;49.448;9.056;2022-07-10T09:33:33;16.50;99.90
34147;DHT22;20423;49.448;9.056;2022-07-10T09:36:22;16.40;99.90
34147;DHT22;20423;49.448;9.056;2022-07-10T09:38:50;16.50;99.90
34147;DHT22;20423;49.448;9.056;2022-07-10T09:41:29;16.20;99.90
34147;DHT22;20423;49.448;9.056;2022-07-10T09:44:05;16.00;99.90
34147;DHT22;20423;49.448;9.056;2022-07-10T09:46:38;15.90;99.90
34147;DHT22;20423;49.448;9.056;2022-07-10T09:49:05;16.00;99.90
34147;DHT22;20423;49.448;9.056;2022-07-10T09:51:36;16.20;99.90
34147;DHT22;20423;49.448;9.056;2022-07-10T09:54:04;16.90;99.90
34147;DHT22;20423;49.448;9.056;2022-07-10T09:56:44;17.80;99.90
34147;DHT22;20423;49.448;9.056;2022-07-10T09:59:12;18.10;99.90
34147;DHT22;20423;49.448;9.056;2022-07-10T10:01:46;17.90;99.90
34147;DHT22;20423;49.448;9.056;2022-07-10T10:04:14;17.70;99.90
34147;DHT22;20423;49.448;9.056;2022-07-10T10:06:40;17.50;99.90
34147;DHT22;20423;49.448;9.056;2022-07-10T10:09:41;17.30;99.90
34147;DHT22;20423;49.448;9.056;2022-07-10T10:12:42;17.60;99.90
34147;DHT22;20423;49.448;9.056;2022-07-10T10:15:10;18.00;99.90
34147;DHT22;20423;49.448;9.056;2022-07-10T10:17:45;18.40;99.90
34147;DHT22;20423;49.448;9.056;2022-07-10T10:20:14;18.20;99.90
34147;DHT22;20423;49.448;9.056;2022-07-10T10:22:58;17.90;99.90
34147;DHT22;20423;49.448;9.056;2022-07-10T10:25:26;17.40;99.90
34147;DHT22;20423;49.448;9.056;2022-07-10T10:27:54;17.90;99.90
34147;DHT22;20423;49.448;9.056;2022-07-10T10:30:20;18.40;99.90
34147;DHT22;20423;49.448;9.056;2022-07-10T10:32:46;19.20;99.90
34147;DHT22;20423;49.448;9.056;2022-07-10T10:35:41;19.50;99.90
34147;DHT22;20423;49.448;9.056;2022-07-10T10:38:08;18.90;99.90
34147;DHT22;20423;49.448;9.056;2022-07-10T10:43:37;17.90;99.90
34147;DHT22;20423;49.448;9.056;2022-07-10T10:46:23;17.50;99.90
34147;DHT22;20423;49.448;9.056;2022-07-10T10:49:06;17.50;99.90
34147;DHT22;20423;49.448;9.056;2022-07-10T10:54:31;18.10;99.90
34147;DHT22;20423;49.448;9.056;2022-07-10T10:57:18;19.20;99.90
34147;DHT22;20423;49.448;9.056;2022-07-10T10:59:53;19.50;99.90
34147;DHT22;20423;49.448;9.056;2022-07-10T11:02:24;19.60;99.90
34147;DHT22;20423;49.448;9.056;2022-07-10T11:04:51;19.90;99.90
34147;DHT22;20423;49.448;9.056;2022-07-10T11:13:36;20.30;99.90
34147;DHT22;20423;49.448;9.056;2022-07-10T11:16:12;20.10;99.70
34147;DHT22;20423;49.448;9.056;2022-07-10T11:18:39;19.90;99.90
34147;DHT22;20423;49.448;9.056;2022-07-10T11:21:11;19.50;99.90
34147;DHT22;20423;49.448;9.056;2022-07-10T11:24:28;19.10;99.90
34147;DHT22;20423;49.448;9.056;2022-07-10T11:27:09;19.00;99.90
34147;DHT22;20423;49.448;9.056;2022-07-10T11:29:40;18.40;99.90
34147;DHT22;20423;49.448;9.056;2022-07-10T11:32:06;18.80;99.90
34147;DHT22;20423;49.448;9.056;2022-07-10T11:34:36;19.80;99.90
34147;DHT22;20423;49.448;9.056;2022-07-10T11:37:15;20.30;97.60
34147;DHT22;20423;49.448;9.056;2022-07-10T11:39:41;20.60;97.60
34147;DHT22;20423;49.448;9.056;2022-07-10T11:42:07;20.30;96.40
34147;DHT22;20423;49.448;9.056;2022-07-10T11:47:59;21.50;95.70
34147;DHT22;20423;49.448;9.056;2022-07-10T11:50:26;22.20;93.10
34147;DHT22;20423;49.448;9.056;2022-07-10T11:52:53;21.80;94.30
34147;DHT22;20423;49.448;9.056;2022-07-10T11:55:21;20.90;94.30
34147;DHT22;20423;49.448;9.056;2022-07-10T11:57:47;20.30;94.90
34147;DHT22;20423;49.448;9.056;2022-07-10T12:00:26;20.20;94.90
34147;DHT22;20423;49.448;9.056;2022-07-10T12:02:53;19.60;94.80
34147;DHT22;20423;49.448;9.056;2022-07-10T12:05:38;20.10;95.60
34147;DHT22;20423;49.448;9.056;2022-07-10T12:08:04;20.80;94.60
34147;DHT22;20423;49.448;9.056;2022-07-10T12:10:31;20.60;93.40
34147;DHT22;20423;49.448;9.056;2022-07-10T12:13:14;20.20;95.00
34147;DHT22;20423;49.448;9.056;2022-07-10T12:15:42;19.90;94.50
34147;DHT22;20423;49.448;9.056;2022-07-10T12:18:18;20.40;94.70
34147;DHT22;20423;49.448;9.056;2022-07-10T12:20:45;21.20;93.50
34147;DHT22;20423;49.448;9.056;2022-07-10T12:23:17;21.50;93.20
34147;DHT22;20423;49.448;9.056;2022-07-10T12:25:44;20.70;93.30
34147;DHT22;20423;49.448;9.056;2022-07-10T12:28:10;20.30;93.70
34147;DHT22;20423;49.448;9.056;2022-07-10T12:30:48;19.80;95.10
34147;DHT22;20423;49.448;9.056;2022-07-10T12:33:20;20.30;95.50
34147;DHT22;20423;49.448;9.056;2022-07-10T12:38:25;19.60;94.90
34147;DHT22;20423;49.448;9.056;2022-07-10T12:43:31;19.30;95.60
34147;DHT22;20423;49.448;9.056;2022-07-10T12:46:26;20.20;94.60
34147;DHT22;20423;49.448;9.056;2022-07-10T12:49:09;21.40;93.00
34147;DHT22;20423;49.448;9.056;2022-07-10T12:51:45;22.50;91.90
34147;DHT22;20423;49.448;9.056;2022-07-10T12:56:59;22.00;90.90
34147;DHT22;20423;49.448;9.056;2022-07-10T12:59:28;21.80;91.80
34147;DHT22;20423;49.448;9.056;2022-07-10T13:01:55;21.70;92.50
34147;DHT22;20423;49.448;9.056;2022-07-10T13:04:24;20.90;92.80
34147;DHT22;20423;49.448;9.056;2022-07-10T13:06:52;20.70;92.20
34147;DHT22;20423;49.448;9.056;2022-07-10T13:09:27;21.70;93.10
34147;DHT22;20423;49.448;9.056;2022-07-10T13:11:54;22.50;90.80
34147;DHT22;20423;49.448;9.056;2022-07-10T13:14:20;22.40;90.90
34147;DHT22;20423;49.448;9.056;2022-07-10T13:16:46;21.40;90.50
34147;DHT22;20423;49.448;9.056;2022-07-10T13:19:12;20.80;91.50
34147;DHT22;20423;49.448;9.056;2022-07-10T13:21:38;20.60;93.10
34147;DHT22;20423;49.448;9.056;2022-07-10T13:24:04;20.20;93.80
34147;DHT22;20423;49.448;9.056;2022-07-10T13:26:31;19.90;93.80
34147;DHT22;20423;49.448;9.056;2022-07-10T13:28:57;20.10;95.20
34147;DHT22;20423;49.448;9.056;2022-07-10T13:31:30;20.90;94.10
34147;DHT22;20423;49.448;9.056;2022-07-10T13:33:56;21.20;92.20
34147;DHT22;20423;49.448;9.056;2022-07-10T13:36:22;22.10;91.90
34147;DHT22;20423;49.448;9.056;2022-07-10T13:38:47;22.20;90.70
34147;DHT22;20423;49.448;9.056;2022-07-10T13:41:15;21.70;90.80
34147;DHT22;20423;49.448;9.056;2022-07-10T13:43:41;22.00;91.10
34147;DHT22;20423;49.448;9.056;2022-07-10T13:46:07;22.60;90.50
34147;DHT22;20423;49.448;9.056;2022-07-10T13:48:32;23.20;88.70
34147;DHT22;20423;49.448;9.056;2022-07-10T13:50:58;22.80;90.10
34147;DHT22;20423;49.448;9.056;2022-07-10T13:53:24;22.30;90.40
34147;DHT22;20423;49.448;9.056;2022-07-10T13:55:49;22.50;90.80
34147;DHT22;20423;49.448;9.056;2022-07-10T13:58:16;22.90;91.40
34147;DHT22;20423;49.448;9.056;2022-07-10T14:00:44;22.80;88.70
34147;DHT22;20423;49.448;9.056;2022-07-10T14:03:38;22.30;90.30
34147;DHT22;20423;49.448;9.056;2022-07-10T14:06:04;21.60;91.20
34147;DHT22;20423;49.448;9.056;2022-07-10T14:08:29;21.50;92.00
34147;DHT22;20423;49.448;9.056;2022-07-10T14:10:55;21.90;91.20
34147;DHT22;20423;49.448;9.056;2022-07-10T14:13:21;22.20;89.90
34147;DHT22;20423;49.448;9.056;2022-07-10T14:15:47;23.10;89.30
34147;DHT22;20423;49.448;9.056;2022-07-10T14:18:13;23.20;86.60
34147;DHT22;20423;49.448;9.056;2022-07-10T14:21:00;22.50;86.60
34147;DHT22;20423;49.448;9.056;2022-07-10T14:23:29;21.80;90.30
34147;DHT22;20423;49.448;9.056;2022-07-10T14:25:55;21.40;91.30
34147;DHT22;20423;49.448;9.056;2022-07-10T14:28:21;21.10;91.20
34147;DHT22;20423;49.448;9.056;2022-07-10T14:30:49;21.10;91.30
34147;DHT22;20423;49.448;9.056;2022-07-10T14:33:15;21.20;91.10
34147;DHT22;20423;49.448;9.056;2022-07-10T14:35:40;21.00;90.90
34147;DHT22;20423;49.448;9.056;2022-07-10T14:38:06;21.00;91.60
34147;DHT22;20423;49.448;9.056;2022-07-10T14:40:32;20.50;92.00
34147;DHT22;20423;49.448;9.056;2022-07-10T14:42:58;20.60;92.40
34147;DHT22;20423;49.448;9.056;2022-07-10T14:45:24;20.50;92.00
34147;DHT22;20423;49.448;9.056;2022-07-10T14:48:21;20.40;92.70
34147;DHT22;20423;49.448;9.056;2022-07-10T14:50:46;20.60;92.80
34147;DHT22;20423;49.448;9.056;2022-07-10T14:53:12;21.80;92.00
34147;DHT22;20423;49.448;9.056;2022-07-10T14:55:39;22.30;90.70
34147;DHT22;20423;49.448;9.056;2022-07-10T14:58:04;22.90;90.00
34147;DHT22;20423;49.448;9.056;2022-07-10T15:00:30;22.50;90.30
34147;DHT22;20423;49.448;9.056;2022-07-10T15:02:56;22.20;90.60
34147;DHT22;20423;49.448;9.056;2022-07-10T15:05:21;21.50;91.20
34147;DHT22;20423;49.448;9.056;2022-07-10T15:07:47;21.30;91.70
34147;DHT22;20423;49.448;9.056;2022-07-10T15:10:13;21.30;91.40
34147;DHT22;20423;49.448;9.056;2022-07-10T15:12:42;21.20;92.40
34147;DHT22;20423;49.448;9.056;2022-07-10T15:15:09;21.10;92.30
34147;DHT22;20423;49.448;9.056;2022-07-10T15:17:36;21.50;92.20
34147;DHT22;20423;49.448;9.056;2022-07-10T15:20:03;21.30;91.70
34147;DHT22;20423;49.448;9.056;2022-07-10T15:22:29;21.20;92.50
34147;DHT22;20423;49.448;9.056;2022-07-10T15:24:56;20.90;93.20
34147;DHT22;20423;49.448;9.056;2022-07-10T15:27:22;20.70;92.30
34147;DHT22;20423;49.448;9.056;2022-07-10T15:29:57;20.20;93.60
34147;DHT22;20423;49.448;9.056;2022-07-10T15:33:00;19.70;94.10
34147;DHT22;20423;49.448;9.056;2022-07-10T15:35:25;19.50;95.10
34147;DHT22;20423;49.448;9.056;2022-07-10T15:37:51;19.50;95.70
34147;DHT22;20423;49.448;9.056;2022-07-10T15:40:17;19.70;95.20
34147;DHT22;20423;49.448;9.056;2022-07-10T15:42:43;20.20;94.80
34147;DHT22;20423;49.448;9.056;2022-07-10T15:45:09;20.10;94.50
34147;DHT22;20423;49.448;9.056;2022-07-10T15:47:36;20.10;95.00
34147;DHT22;20423;49.448;9.056;2022-07-10T15:50:02;19.70;94.70
34147;DHT22;20423;49.448;9.056;2022-07-10T15:52:28;19.40;95.70
34147;DHT22;20423;49.448;9.056;2022-07-10T15:54:53;19.40;96.50
34147;DHT22;20423;49.448;9.056;2022-07-10T15:57:19;19.30;96.60
34147;DHT22;20423;49.448;9.056;2022-07-10T15:59:45;19.20;97.30
34147;DHT22;20423;49.448;9.056;2022-07-10T16:02:11;19.10;97.60
34147;DHT22;20423;49.448;9.056;2022-07-10T16:04:37;19.10;97.80
34147;DHT22;20423;49.448;9.056;2022-07-10T16:07:04;19.10;97.80
34147;DHT22;20423;49.448;9.056;2022-07-10T16:09:30;19.10;98.10
34147;DHT22;20423;49.448;9.056;2022-07-10T16:11:56;18.90;97.70
34147;DHT22;20423;49.448;9.056;2022-07-10T16:14:21;19.00;98.00